Gracefield, Canada
Current Conditions -  °F | °C
As of 3:00 PM on Tuesday 25 Nov 2014 (Local Time) from CYND Reporting Station
Overcast Overcast  
Wind Chill: 33°   Ceiling: 3500
Heat Index: 41°   Visibility: 15mi
Dew Point: 30°   Wind: 16mph
Humidity: 65%   Direction: 250°WSW
Pressure: 29.82"   Gusts: 28mph
Location:  46.09°N, 76.05°W
Report Text: CYND 252000Z 25014G24KT 15SM BKN035 OVC060 05/M01 A2982 RMK SC6SC2 SLP101
Loading
Personal Weather Stations






























Interactive Weather Map New forecast layout! Learn more

10-Day Weather Forecast

Advertisements
Track Severe Weather on mobile